KTEX

Telluride Regional Airport

Telluride, Colorado, USA
METAR KTEX 231055Z AUTO 11005KT 10SM CLR M12/M15 A3024 RMK AO2 T11241155
Observed Flight Rules
Jan-23 @ 10:55 UTC (49 minutes ago) Visual Flight Rules
Wind Visibility Clouds
110° at 5 knots 10 miles
  • Clear skies
Temperatures Readings
Current -12°C / 10°F
Dewpoint -16°C / 3°F
Humidity 72%
Altimeter 30.24" Hg
Pressure 1024 hPa
Elevation 2769
METAR KTEX 231055Z AUTO 11005KT 10SM CLR M12/M15 A3024 RMK AO2 T11241155
Observed Flight Rules
Jan-23 @ 10:55 UTC
(49 minutes ago)
VFR
Wind Visibility
110° at 5 knots 10 miles
Clouds
  • Clear skies
Temperature Dewpoint
-12°C / 10°F -16°C / 3°F
Humidity Altimeter Pressure
72% 30.24" Hg 1024 hPa